»·PEaware :: N221XG KSAN-KREI

N221XG :: KSAN-KREI

FLIGHT INFORMATION

Flight Status: Arrived
Operator: Privately registered:
United States
More flights under this callsign
Pilot: Ryan L. (9775)
Aircraft: BEECH AIRCRAFT BARON
(BE58)
More flights by this aircraft type
Origin: KSAN San Diego Intl-Lindbergh
United States
Destination: KREI Redlands Mun
United States
More flights between these airports :: More routes between these airports
Route: HDF
File this flight plan on PilotEdge
Remarks:
Altitude:
(Current/Filed)
6,500ft
Speed:
(Current/Filed)
190kts
Departed: 06-Mar-17 04:37 PM
Arrived: 06-Mar-17 05:11 PM
Distance/Time
Traveled:
93nm/0:33
Distance/Time
To Go:
Arrived

Flight Plot

Page will automatically refresh every two minutes.


Map Options




Map Legend


Flown Route
Filed Route
Departure Airport
Arrival Airport
Navaid (VOR, NDB)
Fix

Horizontal Profiles

Position Reports

Time Latitude Longitude Heading Altitude Ground
Speed
06-Mar-17 16:19 32.732391 -117.176712 194 20ft 0kts
06-Mar-17 16:20 32.732391 -117.176712 194 20ft 0kts
06-Mar-17 16:23 32.732393 -117.176710 194 20ft 0kts
06-Mar-17 16:24 32.732393 -117.176710 194 20ft 0kts
06-Mar-17 16:25 32.732393 -117.176710 194 20ft 0kts
06-Mar-17 16:26 32.732393 -117.176710 194 20ft 0kts
06-Mar-17 16:27 32.732393 -117.176710 194 20ft 0kts
06-Mar-17 16:28 32.732393 -117.176710 194 20ft 0kts
06-Mar-17 16:29 32.732393 -117.176710 194 20ft 0kts
06-Mar-17 16:30 32.732393 -117.176710 194 20ft 0kts
06-Mar-17 16:31 32.732393 -117.176710 194 20ft 0kts
06-Mar-17 16:32 32.732393 -117.176710 194 20ft 0kts
06-Mar-17 16:33 32.732393 -117.176710 194 20ft 0kts
06-Mar-17 16:34 32.731552 -117.176808 128 20ft 16kts
06-Mar-17 16:35 32.730894 -117.175458 145 20ft 0kts
06-Mar-17 16:36 32.730895 -117.175458 145 20ft 0kts
06-Mar-17 16:37 32.730895 -117.175458 145 20ft 0kts
06-Mar-17 16:38 32.731565 -117.181479 285 20ft 97kts
06-Mar-17 16:39 32.721719 -117.217780 238 1085ft 139kts
06-Mar-17 16:40 32.738893 -117.252865 327 2215ft 138kts
06-Mar-17 16:41 32.768986 -117.282176 320 3663ft 146kts
06-Mar-17 16:42 32.801678 -117.310752 327 4934ft 151kts
06-Mar-17 16:43 32.841759 -117.303388 23 5913ft 159kts
06-Mar-17 16:44 32.883379 -117.281371 25 6330ft 173kts
06-Mar-17 16:45 32.926722 -117.256329 23 6388ft 179kts
06-Mar-17 16:46 32.972574 -117.232140 21 6266ft 184kts
06-Mar-17 16:47 33.020711 -117.214411 17 6242ft 183kts
06-Mar-17 16:48 33.068773 -117.198485 11 6209ft 183kts
06-Mar-17 16:49 33.117432 -117.190477 1 6251ft 182kts
06-Mar-17 16:50 33.167122 -117.191817 357 6235ft 183kts
06-Mar-17 16:51 33.216855 -117.185833 7 6206ft 183kts
06-Mar-17 16:52 33.263459 -117.179065 7 6184ft 183kts
06-Mar-17 16:53 33.313062 -117.171850 7 6162ft 183kts
06-Mar-17 16:54 33.362747 -117.164610 7 6141ft 183kts
06-Mar-17 16:55 33.412559 -117.157339 7 6122ft 183kts
06-Mar-17 16:56 33.461571 -117.150194 7 6258ft 180kts
06-Mar-17 16:57 33.511126 -117.142928 7 6259ft 183kts
06-Mar-17 16:58 33.560857 -117.135629 7 6258ft 184kts
06-Mar-17 16:59 33.609504 -117.128478 7 6258ft 184kts
06-Mar-17 17:00 33.659698 -117.121083 7 6259ft 186kts
06-Mar-17 17:01 33.710321 -117.113605 7 6258ft 187kts
06-Mar-17 17:02 33.758630 -117.092180 27 5923ft 192kts
06-Mar-17 17:03 33.799967 -117.055300 41 4941ft 190kts
06-Mar-17 17:04 33.845262 -117.039143 349 3820ft 179kts
06-Mar-17 17:05 33.891616 -117.052818 338 3265ft 169kts
06-Mar-17 17:06 33.933671 -117.076631 331 3605ft 174kts
06-Mar-17 17:07 33.974868 -117.105877 328 3607ft 175kts
06-Mar-17 17:08 34.016878 -117.131784 336 3245ft 170kts
06-Mar-17 17:09 34.059235 -117.154476 340 2727ft 169kts
06-Mar-17 17:10 34.075758 -117.125121 88 2283ft 119kts
06-Mar-17 17:11 34.085345 -117.133081 269 1710ft 111kts
06-Mar-17 17:12 34.085182 -117.153598 237 1573ft 12kts
06-Mar-17 17:13 34.084393 -117.152576 92 1573ft 0kts
06-Mar-17 17:14 34.084393 -117.152576 92 1573ft 0kts
06-Mar-17 17:15 34.084393 -117.152576 92 1573ft 0kts
06-Mar-17 17:16 34.084393 -117.152576 91 1573ft 0kts
06-Mar-17 17:17 34.084393 -117.152576 91 1573ft 0kts
06-Mar-17 17:18 34.084848 -117.153624 299 1573ft 0kts
06-Mar-17 17:19 34.085334 -117.138754 88 1869ft 130kts
06-Mar-17 17:20 34.102924 -117.102507 44 3882ft 137kts
06-Mar-17 17:21 34.133116 -117.074693 46 5508ft 142kts
06-Mar-17 17:22 34.151756 -117.033938 44 6826ft 152kts
06-Mar-17 17:23 34.190820 -117.010149 2 7359ft 179kts
06-Mar-17 17:24 34.238112 -116.998880 44 7501ft 191kts
06-Mar-17 17:25 34.247451 -116.944397 91 7935ft 183kts
06-Mar-17 17:26 34.255889 -116.885861 75 7551ft 170kts

Navigation Log

Ident Type
Flight plan parsing failed, navigation log unavailable